Time;durP1;ratioP1;P1;durP2;ratioP2;P2;SDS_P1;SDS_P2;PMS_P1;PMS_P2;Temp;Humidity;BMP_temperature;BMP_pressure;BME280_temperature;BME280_humidity;BME280_pressure;Samples;Min_cycle;Max_cycle;Signal;HPM_P1;HPM_P2
2022/10/14 00:00:19;;;;;;;0.52;0.25;;;;;;;16.82;49.21;99279.09;5057307;28;20475;-77
2022/10/14 00:02:45;;;;;;;1.05;0.40;;;;;;;16.85;49.59;99277.97;5056914;28;20037;-79
2022/10/14 00:05:10;;;;;;;0.57;0.30;;;;;;;16.83;49.56;99278.09;5073823;28;20073;-78
2022/10/14 00:07:36;;;;;;;1.20;0.40;;;;;;;16.83;49.66;99269.38;5057434;28;20032;-77
2022/10/14 00:10:03;;;;;;;0.93;0.25;;;;;;;16.85;49.58;99279.78;5057190;28;20453;-77
2022/10/14 00:12:28;;;;;;;0.70;0.30;;;;;;;16.85;49.78;99274.50;5056441;28;20040;-77
2022/10/14 00:14:55;;;;;;;1.25;0.30;;;;;;;16.82;49.68;99275.63;5073817;28;20408;-77
2022/10/14 00:17:20;;;;;;;1.23;0.40;;;;;;;16.76;49.91;99255.09;5073620;28;20047;-79
2022/10/14 00:19:46;;;;;;;0.50;0.30;;;;;;;16.85;49.82;99272.69;5057061;28;20472;-76
2022/10/14 00:22:12;;;;;;;0.55;0.35;;;;;;;16.85;49.82;99266.59;5074791;28;20476;-77
2022/10/14 00:24:38;;;;;;;4.40;0.30;;;;;;;16.76;49.97;99250.69;5073465;28;20076;-77
2022/10/14 00:27:03;;;;;;;0.20;0.10;;;;;;;16.78;49.87;99259.25;5072749;28;20090;-77
2022/10/14 00:29:29;;;;;;;0.55;0.30;;;;;;;16.78;49.95;99258.44;5073376;28;20434;-77
2022/10/14 00:31:54;;;;;;;1.02;0.30;;;;;;;16.75;49.89;99256.09;5056444;28;20059;-77
2022/10/14 00:34:20;;;;;;;1.55;0.30;;;;;;;16.68;49.86;99247.09;5056858;28;20484;-77
2022/10/14 00:36:45;;;;;;;0.30;0.20;;;;;;;16.71;50.13;99247.63;5073180;28;20041;-78
2022/10/14 00:39:11;;;;;;;0.40;0.22;;;;;;;16.68;49.97;99242.63;5073133;28;20111;-77
2022/10/14 00:41:36;;;;;;;3.92;0.30;;;;;;;16.65;50.12;99237.66;5057366;28;20029;-79
2022/10/14 00:44:27;;;;;;;1.02;0.30;;;;;;;16.61;50.30;99238.94;5036311;28;20043;-78
2022/10/14 00:46:53;;;;;;;2.63;0.40;;;;;;;16.58;50.30;99233.94;5053178;28;20079;-78
2022/10/14 00:49:32;;;;;;;0.50;0.30;;;;;;;16.56;50.50;99228.00;5053149;28;20128;-79
2022/10/14 00:52:00;;;;;;;1.00;0.22;;;;;;;16.45;50.33;99215.81;5036497;28;20504;-78
2022/10/14 00:54:33;;;;;;;0.68;0.30;;;;;;;16.42;50.48;99202.91;5035990;28;20128;-79
2022/10/14 00:56:59;;;;;;;3.05;0.30;;;;;;;16.36;50.56;99206.94;5036537;28;20341;-79
2022/10/14 00:59:25;;;;;;;1.48;0.30;;;;;;;16.38;50.78;99219.97;5036359;28;20064;-79
2022/10/14 01:01:50;;;;;;;2.25;0.50;;;;;;;16.35;50.63;99215.00;5036191;28;20024;-80
2022/10/14 01:04:15;;;;;;;2.63;0.30;;;;;;;16.32;50.99;99212.63;5036332;28;20496;-79
2022/10/14 01:07:02;;;;;;;1.08;0.30;;;;;;;16.28;51.04;99217.38;5036151;28;20033;-80
2022/10/14 01:09:30;;;;;;;2.25;0.40;;;;;;;16.26;51.11;99211.41;5037960;28;20037;-78
2022/10/14 01:12:12;;;;;;;2.38;0.40;;;;;;;16.20;51.28;99207.53;5052478;28;20028;-79
2022/10/14 01:14:54;;;;;;;1.38;0.30;;;;;;;16.24;51.29;99208.94;5020524;28;20033;-78
2022/10/14 01:17:34;;;;;;;0.95;0.38;;;;;;;16.19;51.37;99211.16;5053344;28;20024;-78
2022/10/14 01:20:05;;;;;;;0.95;0.40;;;;;;;16.18;51.59;99203.41;5036808;28;20090;-78
2022/10/14 01:22:40;;;;;;;0.70;0.32;;;;;;;16.15;51.55;99193.97;5053981;28;20025;-78
2022/10/14 01:25:44;;;;;;;1.33;0.47;;;;;;;16.14;51.61;99199.38;5036507;28;20032;-79
2022/10/14 01:28:25;;;;;;;2.17;0.60;;;;;;;16.12;51.66;99196.06;5036542;28;20056;-78
2022/10/14 01:30:59;;;;;;;0.82;0.40;;;;;;;16.10;51.67;99197.03;5052972;28;20028;-79
2022/10/14 01:33:26;;;;;;;0.57;0.30;;;;;;;16.05;51.70;99201.91;5038013;28;20044;-79
2022/10/14 01:36:09;;;;;;;0.75;0.28;;;;;;;16.07;51.80;99204.38;5071369;28;20027;-79
2022/10/14 01:38:36;;;;;;;2.17;0.50;;;;;;;16.06;51.79;99200.09;5070877;28;20395;-79
2022/10/14 01:41:16;;;;;;;1.35;0.40;;;;;;;16.04;51.65;99192.31;5071486;28;20032;-80
2022/10/14 01:43:42;;;;;;;0.98;0.30;;;;;;;16.01;51.90;99194.41;5051424;28;20559;-78
2022/10/14 01:46:07;;;;;;;0.63;0.32;;;;;;;15.97;52.04;99188.59;5051136;28;20474;-81
2022/10/14 01:48:35;;;;;;;1.17;0.40;;;;;;;15.96;51.99;99180.84;5034441;28;20025;-79
2022/10/14 01:51:03;;;;;;;1.45;0.40;;;;;;;15.98;52.16;99190.25;5050172;28;20033;-79
2022/10/14 01:53:30;;;;;;;0.68;0.30;;;;;;;15.97;52.08;99187.75;5033798;28;20120;-78
2022/10/14 01:55:56;;;;;;;0.82;0.30;;;;;;;15.91;51.98;99178.63;5051066;28;20045;-80
2022/10/14 01:58:23;;;;;;;1.45;0.40;;;;;;;15.84;52.08;99175.72;5050816;28;20037;-82
2022/10/14 02:00:49;;;;;;;4.40;0.45;;;;;;;15.86;52.08;99181.69;5034455;28;20029;-80
2022/10/14 02:03:15;;;;;;;0.98;0.43;;;;;;;15.82;52.14;99187.38;5067111;28;20059;-79
2022/10/14 02:05:44;;;;;;;0.98;0.35;;;;;;;15.81;52.20;99183.06;5034168;28;20033;-80
2022/10/14 02:08:30;;;;;;;0.60;0.30;;;;;;;15.79;52.39;99180.56;5034072;28;20125;-79
2022/10/14 02:10:56;;;;;;;4.03;0.50;;;;;;;15.75;52.30;99181.81;5050613;28;20067;-79
2022/10/14 02:13:40;;;;;;;1.70;0.45;;;;;;;15.74;52.52;99188.84;5051480;28;20064;-79
2022/10/14 02:16:11;;;;;;;3.15;0.40;;;;;;;15.72;52.61;99184.72;5050876;28;20033;-78
2022/10/14 02:18:46;;;;;;;3.22;0.50;;;;;;;15.70;52.61;99186.63;5033854;28;20064;-79
2022/10/14 02:21:22;;;;;;;1.10;0.40;;;;;;;15.68;52.70;99176.25;5034062;28;20037;-78
2022/10/14 02:23:54;;;;;;;2.85;0.52;;;;;;;15.68;52.72;99184.13;5050644;28;20025;-79
2022/10/14 02:26:20;;;;;;;1.52;0.57;;;;;;;15.64;52.91;99161.72;5066984;28;20029;-79
2022/10/14 02:28:45;;;;;;;1.77;0.60;;;;;;;15.66;52.89;99172.09;4983941;28;1428970;-78
2022/10/14 02:31:12;;;;;;;1.27;0.50;;;;;;;15.62;52.81;99166.25;5051061;28;20419;-79
2022/10/14 02:33:39;;;;;;;1.25;0.50;;;;;;;15.63;52.91;99175.00;5034588;28;20408;-79
2022/10/14 02:36:06;;;;;;;4.60;0.50;;;;;;;15.63;52.74;99170.56;5034549;28;20411;-79
2022/10/14 02:38:31;;;;;;;2.22;0.57;;;;;;;15.64;52.65;99169.63;5051074;28;20411;-78
2022/10/14 02:40:56;;;;;;;1.10;0.43;;;;;;;15.64;52.80;99168.75;5051078;28;20029;-78
2022/10/14 02:43:22;;;;;;;1.02;0.50;;;;;;;15.63;52.93;99167.13;5050997;28;20029;-78
2022/10/14 02:45:47;;;;;;;3.92;0.50;;;;;;;15.62;52.81;99163.63;5034439;28;20063;-78
2022/10/14 02:48:13;;;;;;;2.70;0.47;;;;;;;15.55;52.85;99173.06;5050459;28;20503;-78
2022/10/14 02:50:39;;;;;;;1.27;0.65;;;;;;;15.59;53.05;99171.81;5050696;28;20044;-78
2022/10/14 02:53:05;;;;;;;1.50;0.45;;;;;;;15.52;52.92;99163.63;5034307;28;20025;-78
2022/10/14 02:55:30;;;;;;;1.48;0.60;;;;;;;15.55;52.89;99162.53;5050931;28;20091;-78
2022/10/14 02:57:56;;;;;;;1.13;0.40;;;;;;;15.56;53.07;99161.59;5059603;28;20024;-78
2022/10/14 03:00:21;;;;;;;1.27;0.50;;;;;;;15.56;53.04;99159.78;5051157;28;20404;-79
2022/10/14 03:02:47;;;;;;;1.65;0.35;;;;;;;15.45;53.01;99146.75;5050342;28;20067;-79
2022/10/14 03:05:12;;;;;;;1.13;0.50;;;;;;;15.52;53.22;99158.38;5033176;28;20033;-79
2022/10/14 03:07:38;;;;;;;1.30;0.52;;;;;;;15.53;53.09;99161.84;5050918;28;20059;-78
2022/10/14 03:10:03;;;;;;;1.05;0.35;;;;;;;15.52;53.21;99162.81;5050720;28;20111;-78
2022/10/14 03:12:29;;;;;;;1.92;0.40;;;;;;;15.49;53.18;99157.84;5051437;28;20092;-78
2022/10/14 03:14:54;;;;;;;2.03;0.50;;;;;;;15.45;53.19;99148.53;5051106;28;20043;-78
2022/10/14 03:17:20;;;;;;;1.50;0.50;;;;;;;15.41;53.26;99142.72;5034448;28;20067;-81
2022/10/14 03:19:45;;;;;;;2.20;0.55;;;;;;;15.41;53.12;99149.81;5053908;28;20089;-80
2022/10/14 03:22:11;;;;;;;1.40;0.73;;;;;;;15.42;53.23;99149.66;5053497;28;20043;-80
2022/10/14 03:24:36;;;;;;;1.10;0.60;;;;;;;15.44;53.09;99149.53;5070368;28;20112;-81
2022/10/14 03:27:02;;;;;;;4.43;0.63;;;;;;;15.40;53.07;99146.31;5071628;28;20031;-78
2022/10/14 03:29:27;;;;;;;2.53;0.50;;;;;;;15.39;53.12;99155.19;5070156;28;20089;-79
2022/10/14 03:31:53;;;;;;;0.88;0.50;;;;;;;15.32;52.94;99141.78;5070457;28;20492;-79
2022/10/14 03:34:18;;;;;;;0.82;0.43;;;;;;;15.31;52.95;99134.84;5070515;28;20389;-79
2022/10/14 03:36:44;;;;;;;1.50;0.47;;;;;;;15.31;53.16;99142.72;5053535;28;20060;-78
2022/10/14 03:39:10;;;;;;;2.45;0.60;;;;;;;15.28;53.07;99140.38;5054200;28;20411;-79
2022/10/14 03:41:35;;;;;;;2.25;0.70;;;;;;;15.32;53.00;99149.66;5070404;28;20052;-78
2022/10/14 03:44:01;;;;;;;1.50;0.60;;;;;;;15.27;53.06;99141.34;5070571;28;20446;-78
2022/10/14 03:46:26;;;;;;;3.80;0.50;;;;;;;15.27;52.97;99151.03;5070605;28;20040;-79
2022/10/14 03:48:52;;;;;;;1.08;0.50;;;;;;;15.29;53.05;99154.34;5053918;28;20048;-79
2022/10/14 03:51:17;;;;;;;5.13;0.63;;;;;;;15.23;52.71;99136.47;5070385;28;20032;-78
2022/10/14 03:53:43;;;;;;;3.03;0.43;;;;;;;15.30;53.04;99148.13;5066334;28;20036;-78
2022/10/14 03:56:08;;;;;;;3.30;0.40;;;;;;;15.29;53.14;99147.31;5033724;28;20127;-80
2022/10/14 03:58:34;;;;;;;0.88;0.55;;;;;;;15.27;53.07;99141.34;5033254;28;20033;-78
2022/10/14 04:00:59;;;;;;;0.88;0.52;;;;;;;15.26;53.31;99149.38;5017027;28;20484;-81
2022/10/14 04:03:25;;;;;;;1.35;0.40;;;;;;;15.19;53.20;99136.75;5016919;28;20061;-80
2022/10/14 04:05:50;;;;;;;0.98;0.40;;;;;;;15.24;53.31;99143.41;5034130;28;20044;-78
2022/10/14 04:08:16;;;;;;;1.50;0.40;;;;;;;15.25;53.55;99132.75;5033415;28;20025;-80
2022/10/14 04:10:42;;;;;;;1.17;0.52;;;;;;;15.24;53.23;99138.16;5033274;28;20044;-79
2022/10/14 04:13:07;;;;;;;10.98;0.60;;;;;;;15.26;53.14;99134.44;5016813;28;20025;-78
2022/10/14 04:15:34;;;;;;;0.88;0.50;;;;;;;15.26;53.00;99134.44;5034076;28;20025;-77
2022/10/14 04:17:59;;;;;;;5.28;0.60;;;;;;;15.30;53.40;99132.34;5053737;28;20029;-79
2022/10/14 04:20:25;;;;;;;2.78;1.00;;;;;;;15.30;53.21;99134.97;5053683;28;20029;-81
2022/10/14 04:22:50;;;;;;;2.22;0.60;;;;;;;15.26;52.98;99113.41;5036824;28;20108;-81
2022/10/14 04:25:16;;;;;;;1.23;0.40;;;;;;;15.33;52.80;99118.94;5036930;28;20033;-80
2022/10/14 04:27:41;;;;;;;0.63;0.30;;;;;;;15.38;52.81;99114.91;5036664;28;20044;-79
2022/10/14 04:30:08;;;;;;;0.57;0.43;;;;;;;15.45;52.62;99122.22;5043380;28;20417;-78
2022/10/14 04:32:33;;;;;;;5.25;0.75;;;;;;;15.45;52.51;99119.59;5073675;28;20032;-78
2022/10/14 04:34:59;;;;;;;5.03;0.80;;;;;;;15.48;52.62;99120.19;5056433;28;20036;-78
2022/10/14 04:37:24;;;;;;;8.15;0.70;;;;;;;15.51;52.72;99125.16;5074716;28;20032;-79
2022/10/14 04:39:50;;;;;;;2.13;0.68;;;;;;;15.53;52.52;99117.94;5073310;28;20131;-81
2022/10/14 04:42:15;;;;;;;2.28;0.77;;;;;;;15.63;52.38;99130.28;5089607;28;20037;-79
2022/10/14 04:44:41;;;;;;;2.15;0.80;;;;;;;15.84;51.74;99122.25;5073517;28;20661;-79
2022/10/14 04:47:06;;;;;;;3.10;0.63;;;;;;;15.83;51.95;99118.78;5073412;28;20024;-78
2022/10/14 04:49:32;;;;;;;2.63;0.73;;;;;;;15.83;51.80;99118.78;5073445;28;20040;-79
2022/10/14 04:51:57;;;;;;;4.47;1.30;;;;;;;15.89;51.45;99117.38;5056514;28;20103;-79
2022/10/14 04:54:23;;;;;;;2.88;0.63;;;;;;;15.95;51.62;99122.06;5073552;28;20565;-79
2022/10/14 04:56:48;;;;;;;1.50;0.70;;;;;;;16.00;51.37;99126.91;5073482;28;20399;-79
2022/10/14 04:59:14;;;;;;;2.40;0.70;;;;;;;16.03;51.26;99134.53;5073045;28;20039;-78
2022/10/14 05:01:40;;;;;;;7.63;0.70;;;;;;;16.01;51.33;99131.22;5072875;28;20082;-78
2022/10/14 05:04:05;;;;;;;5.72;0.90;;;;;;;15.99;51.43;99120.81;5056386;28;20029;-80
2022/10/14 05:06:31;;;;;;;2.45;0.80;;;;;;;16.09;51.35;99128.69;5062494;28;20044;-80
2022/10/14 05:08:56;;;;;;;3.15;0.85;;;;;;;16.16;51.04;99123.69;5019927;28;20072;-78
2022/10/14 05:11:22;;;;;;;4.53;0.90;;;;;;;16.35;50.78;99131.53;5052957;28;20029;-79
2022/10/14 05:13:47;;;;;;;1.95;0.80;;;;;;;16.78;49.64;99122.19;5036212;28;20033;-79
2022/10/14 05:16:13;;;;;;;1.50;0.75;;;;;;;17.45;48.49;99126.34;5019573;28;20037;-78
2022/10/14 05:18:38;;;;;;;2.25;0.85;;;;;;;17.75;48.25;99117.16;5052923;28;20060;-78
2022/10/14 05:21:04;;;;;;;1.40;0.80;;;;;;;18.70;45.71;99119.03;5035897;28;20029;-78
2022/10/14 05:23:29;;;;;;;4.18;1.08;;;;;;;19.59;43.69;99111.44;5053026;28;20029;-79
2022/10/14 05:25:55;;;;;;;1.60;0.88;;;;;;;20.35;42.05;99114.63;5036002;28;20036;-79
2022/10/14 05:28:20;;;;;;;1.13;0.70;;;;;;;20.98;40.55;99120.03;5051065;28;20090;-82
2022/10/14 05:30:46;;;;;;;3.75;0.80;;;;;;;21.67;39.16;99117.41;5019518;28;20048;-80
2022/10/14 05:33:11;;;;;;;2.22;0.80;;;;;;;22.43;37.62;99125.28;5037782;28;20194;-80
2022/10/14 05:35:37;;;;;;;2.40;0.55;;;;;;;23.14;35.98;99123.91;5060678;28;20049;-80
2022/10/14 05:38:03;;;;;;;2.08;0.70;;;;;;;23.77;34.73;99118.75;5052794;28;20033;-79
2022/10/14 05:40:28;;;;;;;11.13;0.90;;;;;;;24.30;33.74;99119.09;5055653;28;20029;-80
2022/10/14 05:42:54;;;;;;;2.17;0.75;;;;;;;24.96;32.48;99111.63;5062850;28;20037;-79
2022/10/14 05:45:20;;;;;;;2.25;0.80;;;;;;;24.79;32.57;99111.16;5049349;28;20098;-80
2022/10/14 05:47:46;;;;;;;6.15;0.80;;;;;;;24.52;32.63;99106.50;5035631;28;20033;-79
2022/10/14 05:50:12;;;;;;;3.92;0.88;;;;;;;24.60;32.46;99107.41;5035622;28;20480;-80
2022/10/14 05:52:39;;;;;;;2.85;0.57;;;;;;;24.28;32.85;99105.16;5051899;28;20029;-79
2022/10/14 05:55:07;;;;;;;2.50;0.80;;;;;;;24.06;33.48;99108.94;5052312;28;20037;-78
2022/10/14 05:57:32;;;;;;;1.55;0.65;;;;;;;23.85;33.70;99118.63;5036002;28;20112;-79
2022/10/14 05:59:59;;;;;;;3.20;1.35;;;;;;;24.62;32.68;99119.53;5035423;28;20028;-79
2022/10/14 06:02:25;;;;;;;4.32;1.17;;;;;;;25.04;32.10;99114.91;5068206;28;20086;-79
2022/10/14 06:04:50;;;;;;;4.38;1.90;;;;;;;25.65;31.09;99118.53;5035364;28;20036;-70
2022/10/14 06:07:16;;;;;;;7.25;1.90;;;;;;;26.18;30.89;99117.66;5052525;28;20029;-80
2022/10/14 06:09:42;;;;;;;2.38;1.20;;;;;;;26.97;30.58;99117.63;5051721;28;20123;-70
2022/10/14 06:12:08;;;;;;;2.47;0.98;;;;;;;27.58;30.30;99122.38;5055687;28;20025;-69
2022/10/14 06:14:35;;;;;;;1.92;0.93;;;;;;;28.23;28.73;99123.03;5036222;28;20037;-68
2022/10/14 06:17:01;;;;;;;3.15;1.70;;;;;;;28.52;28.03;99118.81;5051334;28;20041;-68
2022/10/14 06:19:30;;;;;;;5.05;2.05;;;;;;;28.10;28.24;99127.53;5050906;28;20550;-69
2022/10/14 06:21:56;;;;;;;9.40;1.30;;;;;;;28.26;28.89;99120.75;5035355;28;20029;-67
2022/10/14 06:24:22;;;;;;;5.18;0.65;;;;;;;28.59;27.46;99119.59;5051491;28;20029;-67
2022/10/14 06:26:48;;;;;;;3.28;0.82;;;;;;;28.51;27.26;99120.69;5051790;28;20051;-70
2022/10/14 06:29:15;;;;;;;10.35;1.80;;;;;;;28.35;28.07;99113.19;5034580;28;20094;-68
2022/10/14 06:31:41;;;;;;;6.03;1.20;;;;;;;28.67;26.22;99121.97;5042248;28;20120;-69
2022/10/14 06:34:07;;;;;;;8.50;0.90;;;;;;;28.19;26.43;99119.19;5060920;28;20111;-72
2022/10/14 06:36:34;;;;;;;3.67;1.40;;;;;;;27.56;27.50;99123.63;5043565;28;20104;-75
2022/10/14 06:39:00;;;;;;;4.70;1.80;;;;;;;27.36;27.76;99119.25;5041895;28;20029;-71
2022/10/14 06:41:26;;;;;;;7.70;2.40;;;;;;;28.08;26.45;99113.47;5045250;28;20024;-72
2022/10/14 06:43:53;;;;;;;4.43;0.85;;;;;;;28.84;25.66;99122.16;5059455;28;20060;-76
2022/10/14 06:46:18;;;;;;;4.85;0.80;;;;;;;29.88;23.77;99114.84;5061856;28;20541;-71
2022/10/14 06:48:44;;;;;;;1.40;0.50;;;;;;;30.84;22.23;99115.25;5060081;28;20026;-69
2022/10/14 06:51:10;;;;;;;2.65;0.70;;;;;;;31.53;21.69;99121.59;5060557;28;20028;-71
2022/10/14 06:53:36;;;;;;;3.05;0.60;;;;;;;32.28;20.51;99123.00;5044021;28;20044;-73
2022/10/14 06:56:03;;;;;;;3.05;0.60;;;;;;;33.06;19.58;99110.41;5042495;28;20427;-74
2022/10/14 06:58:30;;;;;;;3.50;0.90;;;;;;;33.72;20.43;99124.53;5043397;28;20111;-74
2022/10/14 07:01:01;;;;;;;3.97;1.20;;;;;;;33.33;21.45;99118.50;5042606;28;20036;-73
2022/10/14 07:03:27;;;;;;;9.27;1.20;;;;;;;32.33;23.07;99119.56;5028554;28;20571;-72
2022/10/14 07:05:53;;;;;;;4.20;0.98;;;;;;;31.50;24.20;99119.38;5061109;28;20037;-73
2022/10/14 07:08:19;;;;;;;8.13;1.17;;;;;;;31.81;24.23;99115.31;5059686;28;20028;-71
2022/10/14 07:10:49;;;;;;;5.05;1.23;;;;;;;32.32;23.83;99109.00;5061268;28;20399;-81
2022/10/14 07:13:15;;;;;;;4.95;1.20;;;;;;;31.39;25.00;99118.38;5044077;28;20021;-82
2022/10/14 07:15:41;;;;;;;5.25;1.30;;;;;;;30.54;25.46;99120.06;5041945;28;20036;-75
2022/10/14 07:18:07;;;;;;;5.85;1.10;;;;;;;30.70;25.19;99119.28;5060903;28;20016;-74
2022/10/14 07:20:33;;;;;;;7.13;1.10;;;;;;;30.00;24.89;99120.19;5042978;28;20507;-77
2022/10/14 07:23:00;;;;;;;3.70;1.20;;;;;;;29.03;24.55;99122.94;5061576;28;20021;-82
2022/10/14 07:25:26;;;;;;;6.85;1.33;;;;;;;28.19;25.80;99120.00;5059991;28;20036;-74
2022/10/14 07:27:54;;;;;;;3.10;1.05;;;;;;;27.55;28.65;99122.00;5033054;28;20033;-79
2022/10/14 07:30:20;;;;;;;4.82;1.00;;;;;;;27.01;28.71;99118.81;5050228;28;20049;-81
2022/10/14 07:32:47;;;;;;;5.43;1.75;;;;;;;26.63;29.19;99108.88;5059418;28;20044;-72
2022/10/14 07:35:13;;;;;;;6.57;1.40;;;;;;;26.78;31.51;99104.09;5060705;28;20025;-84
2022/10/14 07:37:40;;;;;;;6.13;1.45;;;;;;;27.91;30.42;99117.75;5043552;28;20103;-67
2022/10/14 07:40:08;;;;;;;9.27;1.20;;;;;;;28.31;29.29;99102.09;5059470;28;20565;-67
2022/10/14 07:42:34;;;;;;;;;;;;;;;28.92;27.88;99106.75;5058885;28;20118;-68
2022/10/14 07:45:00;;;;;;;5.20;1.35;;;;;;;28.38;27.89;99102.03;5060879;28;20390;-70
2022/10/14 07:47:26;;;;;;;4.00;1.13;;;;;;;29.13;27.45;99100.03;5024806;28;20037;-69
2022/10/14 07:49:52;;;;;;;5.25;1.50;;;;;;;29.46;28.21;99106.81;5058418;28;20487;-70
2022/10/14 07:52:19;;;;;;;8.35;1.20;;;;;;;29.07;27.93;99106.34;5063075;28;20044;-69
2022/10/14 07:54:45;;;;;;;11.73;1.70;;;;;;;29.08;28.01;99106.09;5062947;28;20133;-83
2022/10/14 07:57:11;;;;;;;18.85;2.10;;;;;;;29.32;26.58;99098.13;5045982;28;20638;-81
2022/10/14 07:59:37;;;;;;;6.38;1.45;;;;;;;29.52;24.39;99098.63;5047768;28;20519;-79
2022/10/14 08:02:03;;;;;;;6.18;1.42;;;;;;;29.65;24.01;99102.16;5062766;28;21317;-82
2022/10/14 08:04:30;;;;;;;3.17;0.80;;;;;;;29.71;23.57;99109.28;5050685;28;20028;-82
2022/10/14 08:06:56;;;;;;;12.50;1.10;;;;;;;29.71;24.11;99099.34;5065259;28;20029;-79
2022/10/14 08:09:25;;;;;;;11.40;1.20;;;;;;;29.36;24.29;99097.44;5036491;28;20112;-80
2022/10/14 08:11:54;;;;;;;6.72;1.00;;;;;;;29.74;23.84;99098.88;5062299;28;20063;-79
2022/10/14 08:14:21;;;;;;;8.55;1.40;;;;;;;29.92;24.38;99089.06;5049185;28;20071;-81
2022/10/14 08:16:47;;;;;;;6.90;2.13;;;;;;;29.93;24.11;99080.75;5044669;28;20037;-81
2022/10/14 08:19:13;;;;;;;7.28;1.88;;;;;;;29.36;24.91;99078.63;5062709;28;20084;-78
2022/10/14 08:21:40;;;;;;;4.63;1.50;;;;;;;29.06;26.21;99084.00;5060989;28;20083;-68
2022/10/14 08:24:06;;;;;;;10.48;1.50;;;;;;;29.50;25.72;99094.53;5061608;28;20071;-77
2022/10/14 08:26:51;;;;;;;5.78;1.40;;;;;;;29.77;24.57;99076.88;5061948;28;20043;-81
2022/10/14 08:29:17;;;;;;;3.65;1.23;;;;;;;29.26;24.29;99078.38;5046340;28;20048;-76
2022/10/14 08:31:44;;;;;;;11.45;1.52;;;;;;;29.19;24.08;99085.72;5046272;28;20036;-73
2022/10/14 08:34:10;;;;;;;2.40;1.10;;;;;;;29.50;23.39;99079.22;5062066;28;20507;-80
2022/10/14 08:36:37;;;;;;;4.22;1.30;;;;;;;29.68;23.96;99088.22;5069649;28;20061;-76
2022/10/14 08:39:04;;;;;;;9.73;1.40;;;;;;;29.55;24.21;99081.22;5063947;28;20395;-72
2022/10/14 08:41:34;;;;;;;11.38;1.70;;;;;;;29.85;23.64;99083.81;5061566;28;20091;-76
2022/10/14 08:44:12;;;;;;;11.50;1.60;;;;;;;30.00;22.67;99085.22;5046686;28;20028;-77
2022/10/14 08:46:56;;;;;;;8.02;1.60;;;;;;;30.23;21.46;99081.66;5079497;28;20059;-74
2022/10/14 08:49:48;;;;;;;3.63;1.27;;;;;;;30.30;20.76;99085.06;5062564;28;20064;-77
2022/10/14 08:52:21;;;;;;;10.90;1.40;;;;;;;29.93;20.99;99090.72;5060080;28;20107;-77
2022/10/14 08:54:54;;;;;;;7.57;1.20;;;;;;;30.26;19.97;99082.00;5047661;28;20126;-76
2022/10/14 08:57:34;;;;;;;5.20;1.40;;;;;;;30.47;22.69;99085.16;5064154;28;20068;-84
2022/10/14 09:00:01;;;;;;;8.07;1.50;;;;;;;30.79;26.27;99092.75;5044252;28;20035;-75
2022/10/14 09:02:30;;;;;;;9.38;1.33;;;;;;;30.93;28.29;99079.81;5060550;28;20457;-71
2022/10/14 09:04:56;;;;;;;7.22;1.50;;;;;;;31.14;28.43;99083.75;5062422;28;20020;-76
2022/10/14 09:07:22;;;;;;;4.82;1.25;;;;;;;31.21;28.76;99079.00;5029243;28;20039;-74
2022/10/14 09:09:54;;;;;;;5.55;1.35;;;;;;;31.43;28.40;99081.78;5027328;28;20032;-74
2022/10/14 09:12:23;;;;;;;4.82;1.15;;;;;;;31.44;28.20;99085.28;5043981;28;20033;-79
2022/10/14 09:15:02;;;;;;;8.80;1.55;;;;;;;31.54;28.36;99082.78;5061790;28;20028;-73
2022/10/14 09:17:44;;;;;;;6.95;1.42;;;;;;;31.49;28.96;99074.59;5063333;28;20024;-72
2022/10/14 09:20:20;;;;;;;10.40;1.45;;;;;;;31.49;28.53;99067.31;5059368;28;20393;-75
2022/10/14 09:23:12;;;;;;;19.30;1.80;;;;;;;31.46;28.97;99069.69;5029366;28;20124;-68
2022/10/14 09:25:39;;;;;;;45.78;3.70;;;;;;;31.51;28.81;99072.47;5004888;28;20034;-69
2022/10/14 09:28:05;;;;;;;11.68;1.95;;;;;;;31.47;29.24;99077.53;4978520;28;20038;-69
2022/10/14 09:30:34;;;;;;;13.40;2.58;;;;;;;31.36;29.94;99071.16;4978800;28;20042;-68
2022/10/14 09:33:02;;;;;;;14.10;2.17;;;;;;;31.29;30.22;99075.06;4978943;28;20045;-71
2022/10/14 09:35:39;;;;;;;8.00;2.05;;;;;;;31.19;29.25;99073.03;4979272;28;20394;-70
2022/10/14 09:38:06;;;;;;;12.95;2.28;;;;;;;30.88;30.32;99071.63;4995373;28;20038;-73
2022/10/14 09:40:44;;;;;;;6.67;2.27;;;;;;;30.73;30.13;99075.69;4979173;28;20056;-70
2022/10/14 09:43:10;;;;;;;12.45;2.15;;;;;;;30.60;28.17;99078.66;4979396;28;20099;-69
2022/10/14 09:45:53;;;;;;;13.40;2.40;;;;;;;30.43;28.39;99071.34;5011516;28;20030;-72
2022/10/14 09:48:36;;;;;;;10.32;2.05;;;;;;;30.08;29.32;99072.22;4995589;28;20045;-69
2022/10/14 09:51:05;;;;;;;8.35;1.60;;;;;;;30.05;29.38;99072.69;4994931;28;20034;-69
2022/10/14 09:53:36;;;;;;;8.02;1.65;;;;;;;29.71;30.26;99063.56;4989878;28;20464;-71
2022/10/14 09:56:04;;;;;;;3.75;1.80;;;;;;;29.35;30.74;99063.56;4986666;28;20045;-69
2022/10/14 09:58:31;;;;;;;8.13;2.30;;;;;;;29.32;31.37;99068.56;5004658;28;20026;-70
2022/10/14 10:00:58;;;;;;;6.22;2.20;;;;;;;29.27;31.89;99071.97;5020332;28;20033;-72
2022/10/14 10:03:38;;;;;;;7.93;2.15;;;;;;;29.12;31.54;99068.84;5020038;28;20044;-74
2022/10/14 10:06:09;;;;;;;9.98;2.20;;;;;;;29.05;31.40;99063.59;5043895;28;20033;-73
2022/10/14 10:08:37;;;;;;;7.15;2.15;;;;;;;28.96;31.35;99054.22;5076825;28;20063;-69
2022/10/14 10:11:09;;;;;;;7.95;2.03;;;;;;;28.87;31.06;99059.06;5043904;28;20341;-75
2022/10/14 10:13:43;;;;;;;6.65;1.67;;;;;;;28.65;31.71;99051.50;5070170;28;20029;-70
2022/10/14 10:16:33;;;;;;;17.50;2.90;;;;;;;28.58;32.21;99040.06;5071503;28;20047;-70
2022/10/14 10:19:30;;;;;;;17.13;2.88;;;;;;;28.46;32.50;99045.31;5038829;28;20025;-70
2022/10/14 10:22:22;;;;;;;8.98;2.20;;;;;;;28.44;32.09;99052.00;5070266;28;20032;-69
2022/10/14 10:25:10;;;;;;;12.93;2.75;;;;;;;28.36;31.85;99046.94;5071729;28;20043;-70
2022/10/14 10:27:46;;;;;;;10.77;3.25;;;;;;;28.18;32.87;99040.53;5070425;28;20038;-70
2022/10/14 10:30:25;;;;;;;10.70;3.10;;;;;;;28.12;31.83;99044.94;5054057;28;20121;-71
2022/10/14 10:33:13;;;;;;;11.32;3.22;;;;;;;28.07;32.87;99035.91;5054228;28;20107;-74
2022/10/14 10:36:14;;;;;;;8.00;2.60;;;;;;;27.52;33.16;99024.06;5050240;28;20585;-73
2022/10/14 10:38:45;;;;;;;8.85;2.72;;;;;;;27.27;32.34;99021.34;5049553;28;20079;-70
2022/10/14 10:41:19;;;;;;;12.45;3.15;;;;;;;27.30;31.58;99012.06;5037382;28;20041;-71
2022/10/14 10:43:56;;;;;;;11.38;2.85;;;;;;;27.36;32.59;99008.53;5028409;28;20025;-72
2022/10/14 10:46:33;;;;;;;8.75;2.95;;;;;;;27.35;32.74;99007.72;5027908;28;20041;-71
2022/10/14 10:49:14;;;;;;;7.20;2.75;;;;;;;27.40;32.48;99020.44;5028824;28;20025;-71
2022/10/14 10:51:53;;;;;;;11.82;3.13;;;;;;;27.35;32.78;99017.63;5003171;28;20140;-69
2022/10/14 10:54:18;;;;;;;17.77;3.50;;;;;;;27.26;33.14;99004.47;5024462;28;20079;-70
2022/10/14 10:56:54;;;;;;;8.63;3.15;;;;;;;27.26;32.93;99001.78;5039368;28;20051;-75
2022/10/14 10:59:29;;;;;;;11.90;3.10;;;;;;;27.27;32.77;99006.09;5005446;28;20121;-79
2022/10/14 11:02:19;;;;;;;9.63;3.22;;;;;;;27.30;32.99;98994.13;5023219;28;20080;-77
2022/10/14 11:04:45;;;;;;;10.85;3.25;;;;;;;27.32;32.93;98991.25;5037974;28;20048;-73
2022/10/14 11:13:41;;;;;;;11.32;2.80;;;;;;;27.06;33.61;98985.06;4984294;28;20138;-72
2022/10/14 11:16:32;;;;;;;20.20;3.17;;;;;;;26.96;33.85;98979.34;4958041;28;20046;-70
2022/10/14 11:19:13;;;;;;;13.52;3.22;;;;;;;26.82;34.77;98978.63;4935249;29;20074;-71
2022/10/14 11:21:45;;;;;;;15.68;3.47;;;;;;;26.64;35.08;98965.94;4950376;29;20061;-73
2022/10/14 11:25:01;;;;;;;20.33;3.20;;;;;;;26.56;35.23;98966.22;4950847;28;20042;-70
2022/10/14 11:27:30;;;;;;;37.08;4.22;;;;;;;26.39;36.29;98958.69;4916305;29;20032;-76
2022/10/14 11:30:29;;;;;;;15.82;3.70;;;;;;;26.20;37.82;98960.41;4915880;29;20057;-71
2022/10/14 11:33:01;;;;;;;21.25;3.67;;;;;;;26.10;38.58;98952.06;4916859;29;20039;-72
2022/10/14 11:35:49;;;;;;;12.25;3.30;;;;;;;25.95;38.58;98947.75;4916842;29;20401;-70
2022/10/14 11:38:42;;;;;;;16.35;3.42;;;;;;;25.82;39.11;98945.13;4913491;29;20242;-78
2022/10/14 11:41:35;;;;;;;21.38;3.92;;;;;;;25.69;39.20;98945.19;4948062;28;20125;-77
2022/10/14 11:44:42;;;;;;;15.02;3.03;;;;;;;25.53;38.20;98941.91;4974126;28;20035;-75
2022/10/14 11:47:22;;;;;;;8.67;2.87;;;;;;;25.43;37.27;98938.88;4988827;28;20050;-77
2022/10/14 11:50:05;;;;;;;6.78;3.03;;;;;;;25.27;36.10;98932.91;4957918;28;20042;-72